createdAt,value
2022-10-25T00:01:02.143Z,1.70
2022-10-25T00:03:29.653Z,2.10
2022-10-25T00:05:57.023Z,1.60
2022-10-25T00:08:24.408Z,2.03
2022-10-25T00:10:51.759Z,1.60
2022-10-25T00:13:20.578Z,1.70
2022-10-25T00:15:47.995Z,1.73
2022-10-25T00:18:15.392Z,1.60
2022-10-25T00:20:42.741Z,1.80
2022-10-25T00:23:10.127Z,2.03
2022-10-25T00:25:37.504Z,1.70
2022-10-25T00:28:04.967Z,2.60
2022-10-25T00:30:33.835Z,1.40
2022-10-25T00:33:01.199Z,1.90
2022-10-25T00:35:28.611Z,1.87
2022-10-25T00:37:55.947Z,1.90
2022-10-25T00:40:23.307Z,1.97
2022-10-25T00:42:50.702Z,1.67
2022-10-25T00:45:22.760Z,1.60
2022-10-25T00:47:53.892Z,1.70
2022-10-25T00:50:30.540Z,1.60
2022-10-25T00:53:01.044Z,1.70
2022-10-25T00:55:28.975Z,1.47
2022-10-25T00:57:57.807Z,1.50
2022-10-25T01:00:25.193Z,1.53
2022-10-25T01:05:22.155Z,1.67
2022-10-25T01:07:49.735Z,1.80
2022-10-25T01:10:17.320Z,1.50
2022-10-25T01:12:47.429Z,1.40
2022-10-25T01:15:17.475Z,1.90
2022-10-25T01:17:48.733Z,1.47
2022-10-25T01:20:31.072Z,1.57
2022-10-25T01:23:03.698Z,1.50
2022-10-25T01:25:47.222Z,1.60
2022-10-25T01:28:17.499Z,1.60
2022-10-25T01:31:01.955Z,1.70
2022-10-25T01:33:32.287Z,1.43
2022-10-25T01:36:02.248Z,1.40
2022-10-25T01:38:32.108Z,1.50
2022-10-25T01:41:03.760Z,1.60
2022-10-25T01:43:36.217Z,1.73
2022-10-25T01:46:12.606Z,1.60
2022-10-25T01:48:42.689Z,1.70
2022-10-25T01:51:11.667Z,3.07
2022-10-25T01:53:48.959Z,1.87
2022-10-25T01:56:22.846Z,1.70
2022-10-25T01:58:54.263Z,1.33
2022-10-25T02:01:27.127Z,1.80
2022-10-25T02:03:57.136Z,2.00
2022-10-25T02:06:28.249Z,1.57
2022-10-25T02:09:00.194Z,1.70
2022-10-25T02:11:29.162Z,1.50
2022-10-25T02:14:01.140Z,1.40
2022-10-25T02:16:32.179Z,1.70
2022-10-25T02:19:01.636Z,1.50
2022-10-25T02:21:29.621Z,1.70
2022-10-25T02:23:57.646Z,1.67
2022-10-25T02:26:25.822Z,1.67
2022-10-25T02:28:54.223Z,1.87
2022-10-25T02:31:23.061Z,1.60
2022-10-25T02:33:51.877Z,1.90
2022-10-25T02:36:20.719Z,1.83
2022-10-25T02:38:49.140Z,1.77
2022-10-25T02:41:16.965Z,1.70
2022-10-25T02:43:44.384Z,1.40
2022-10-25T02:46:13.927Z,1.40
2022-10-25T02:48:41.620Z,1.67
2022-10-25T02:51:11.277Z,2.00
2022-10-25T02:53:38.782Z,1.63
2022-10-25T02:56:07.074Z,1.37
2022-10-25T02:58:36.981Z,1.53
2022-10-25T03:01:05.193Z,1.57
2022-10-25T03:03:33.048Z,1.90
2022-10-25T03:06:00.458Z,1.70
2022-10-25T03:08:29.496Z,1.50
2022-10-25T03:10:57.084Z,1.67
2022-10-25T03:13:24.485Z,1.80
2022-10-25T03:15:51.843Z,1.27
2022-10-25T03:18:19.322Z,1.57
2022-10-25T03:20:46.832Z,1.70
2022-10-25T03:23:14.317Z,1.50
2022-10-25T03:25:43.012Z,1.70
2022-10-25T03:28:10.497Z,1.40
2022-10-25T03:30:37.850Z,1.70
2022-10-25T03:33:05.274Z,1.10
2022-10-25T03:35:32.655Z,2.47
2022-10-25T03:38:00.058Z,1.40
2022-10-25T03:40:27.493Z,1.40
2022-10-25T03:42:56.241Z,1.53
2022-10-25T03:45:23.639Z,1.70
2022-10-25T03:47:51.052Z,1.43
2022-10-25T03:50:18.895Z,1.90
2022-10-25T03:52:46.295Z,1.63
2022-10-25T03:55:13.738Z,1.67
2022-10-25T03:57:41.155Z,1.63
2022-10-25T04:00:10.708Z,1.53
2022-10-25T04:02:38.094Z,1.70
2022-10-25T04:05:06.075Z,1.50
2022-10-25T04:07:33.603Z,1.50
2022-10-25T04:10:01.087Z,1.57
2022-10-25T04:12:28.760Z,1.87
2022-10-25T04:14:56.108Z,1.47
2022-10-25T04:17:24.879Z,2.00
2022-10-25T04:19:52.241Z,1.97
2022-10-25T04:22:20.705Z,1.47
2022-10-25T04:24:48.095Z,1.90
2022-10-25T04:27:15.520Z,1.77
2022-10-25T04:29:42.925Z,1.80
2022-10-25T04:32:10.322Z,1.63
2022-10-25T04:34:39.132Z,1.50
2022-10-25T04:37:06.523Z,1.90
2022-10-25T04:39:33.958Z,1.40
2022-10-25T04:42:01.473Z,1.50
2022-10-25T04:44:28.904Z,1.60
2022-10-25T04:46:56.278Z,1.60
2022-10-25T04:49:23.651Z,1.80
2022-10-25T04:51:52.473Z,2.03
2022-10-25T04:54:19.849Z,3.13
2022-10-25T04:56:47.253Z,7.03
2022-10-25T04:59:14.633Z,7.37
2022-10-25T05:01:42.060Z,5.73
2022-10-25T05:04:09.525Z,4.93
2022-10-25T05:06:36.870Z,3.93
2022-10-25T05:09:05.600Z,3.47
2022-10-25T05:11:33.508Z,2.93
2022-10-25T05:14:00.963Z,2.50
2022-10-25T05:16:28.343Z,2.73
2022-10-25T05:18:56.334Z,2.77
2022-10-25T05:24:01.421Z,2.67
2022-10-25T05:26:31.611Z,2.50
2022-10-25T05:28:59.249Z,2.07
2022-10-25T05:31:28.168Z,2.40
2022-10-25T05:33:56.380Z,1.70
2022-10-25T05:36:23.872Z,2.30
2022-10-25T05:38:51.250Z,2.13
2022-10-25T05:41:19.320Z,1.73
2022-10-25T05:43:48.070Z,1.73
2022-10-25T05:46:16.332Z,2.00
2022-10-25T05:48:48.444Z,2.43
2022-10-25T05:54:06.315Z,2.10
2022-10-25T05:56:34.611Z,2.60
2022-10-25T05:59:07.524Z,2.23
2022-10-25T06:01:35.603Z,2.30
2022-10-25T06:04:03.111Z,1.90
2022-10-25T06:06:30.540Z,2.00
2022-10-25T06:08:58.355Z,2.53
2022-10-25T06:11:26.316Z,2.33
2022-10-25T06:13:53.688Z,2.33
2022-10-25T06:16:22.607Z,2.33
2022-10-25T06:18:50.151Z,2.30
2022-10-25T06:21:18.527Z,2.40
2022-10-25T06:23:46.528Z,2.23
2022-10-25T06:26:15.203Z,2.60
2022-10-25T06:28:42.871Z,2.40
2022-10-25T06:31:11.197Z,2.40
2022-10-25T06:33:40.213Z,2.47
2022-10-25T06:36:08.900Z,2.27
2022-10-25T06:38:36.263Z,2.37
2022-10-25T06:41:04.655Z,2.40
2022-10-25T06:43:33.007Z,2.30
2022-10-25T06:46:05.323Z,2.20
2022-10-25T06:48:32.912Z,2.40
2022-10-25T06:51:05.222Z,2.07
2022-10-25T06:53:32.605Z,2.10
2022-10-25T06:56:04.506Z,2.30
2022-10-25T06:58:32.747Z,2.30
2022-10-25T07:01:03.557Z,2.37
2022-10-25T07:03:35.021Z,2.40
2022-10-25T07:06:02.762Z,2.50
2022-10-25T07:08:31.623Z,2.60
2022-10-25T07:10:59.011Z,2.13
2022-10-25T07:13:26.396Z,2.77
2022-10-25T07:15:53.839Z,2.40
2022-10-25T07:18:21.221Z,2.23
2022-10-25T07:20:50.567Z,2.30
2022-10-25T07:23:18.345Z,2.40
2022-10-25T07:25:47.068Z,2.17
2022-10-25T07:28:14.457Z,2.30
2022-10-25T07:30:45.244Z,2.13
2022-10-25T07:33:12.733Z,2.20
2022-10-25T07:35:52.244Z,2.10
2022-10-25T07:38:28.002Z,2.70
2022-10-25T07:40:59.732Z,2.20
2022-10-25T07:43:27.430Z,2.10
2022-10-25T07:45:55.182Z,2.00
2022-10-25T07:48:22.619Z,2.63
2022-10-25T07:50:50.007Z,2.50
2022-10-25T07:53:17.432Z,2.60
2022-10-25T07:55:44.825Z,2.67
2022-10-25T07:58:13.593Z,2.60
2022-10-25T08:00:41.014Z,2.67
2022-10-25T08:03:08.410Z,3.00
2022-10-25T08:05:35.878Z,2.53
2022-10-25T08:08:04.811Z,2.70
2022-10-25T08:10:32.443Z,2.70
2022-10-25T08:12:59.800Z,3.00
2022-10-25T08:15:28.726Z,2.87
2022-10-25T08:17:59.841Z,3.00
2022-10-25T08:20:43.331Z,2.87
2022-10-25T08:23:15.568Z,2.30
2022-10-25T08:25:43.036Z,2.83
2022-10-25T08:28:10.591Z,2.60
2022-10-25T08:30:40.851Z,2.10
2022-10-25T08:33:11.400Z,2.60
2022-10-25T08:35:39.327Z,2.43
2022-10-25T08:38:06.783Z,2.63
2022-10-25T08:40:41.891Z,2.70
2022-10-25T08:43:17.584Z,2.20
2022-10-25T08:45:52.114Z,3.20
2022-10-25T08:48:20.918Z,2.67
2022-10-25T08:50:50.078Z,2.20
2022-10-25T08:53:18.880Z,2.60
2022-10-25T08:56:04.981Z,2.53
2022-10-25T08:58:37.507Z,2.60
2022-10-25T09:01:13.158Z,2.43
2022-10-25T09:06:18.861Z,2.73
2022-10-25T09:08:54.202Z,2.43
2022-10-25T09:11:27.424Z,2.30
2022-10-25T09:13:58.727Z,3.20
2022-10-25T09:16:32.338Z,2.83
2022-10-25T09:18:59.735Z,3.30
2022-10-25T09:21:31.278Z,2.87
2022-10-25T09:23:59.962Z,3.27
2022-10-25T09:26:34.268Z,2.03
2022-10-25T09:29:05.278Z,2.20
2022-10-25T09:31:40.408Z,2.47
2022-10-25T09:34:10.013Z,2.17
2022-10-25T09:36:39.302Z,2.17
2022-10-25T09:39:15.806Z,1.80
2022-10-25T09:41:44.482Z,2.07
2022-10-25T09:44:14.723Z,2.23
2022-10-25T09:46:46.048Z,1.90
2022-10-25T09:49:19.831Z,1.93
2022-10-25T09:51:51.851Z,2.00
2022-10-25T09:54:23.699Z,1.80
2022-10-25T09:56:51.232Z,2.10
2022-10-25T09:59:18.648Z,2.37
2022-10-25T10:01:47.463Z,1.93
2022-10-25T10:04:23.655Z,1.80
2022-10-25T10:06:52.126Z,1.80
2022-10-25T10:09:19.874Z,1.93
2022-10-25T10:11:48.590Z,1.80
2022-10-25T10:14:28.559Z,1.80
2022-10-25T10:16:57.902Z,1.80
2022-10-25T10:19:26.139Z,1.63
2022-10-25T10:21:54.666Z,1.93
2022-10-25T10:24:23.721Z,1.77
2022-10-25T10:26:55.354Z,1.80
2022-10-25T10:29:23.555Z,2.00
2022-10-25T10:31:52.128Z,1.90
2022-10-25T10:34:28.118Z,1.67
2022-10-25T10:37:06.008Z,1.50
2022-10-25T10:39:33.436Z,1.70
2022-10-25T10:42:04.353Z,1.50
2022-10-25T10:44:34.468Z,1.30
2022-10-25T10:47:02.657Z,1.40
2022-10-25T10:49:38.566Z,2.30
2022-10-25T10:52:06.564Z,1.60
2022-10-25T10:54:35.003Z,1.33
2022-10-25T10:57:03.153Z,1.47
2022-10-25T10:59:32.229Z,1.40
2022-10-25T11:02:11.466Z,1.60
2022-10-25T11:04:49.486Z,1.80
2022-10-25T11:07:21.283Z,1.40
2022-10-25T11:09:48.656Z,1.30
2022-10-25T11:12:16.034Z,1.10
2022-10-25T11:14:43.539Z,1.23
2022-10-25T11:17:14.240Z,1.30
2022-10-25T11:20:00.453Z,1.40
2022-10-25T11:22:37.357Z,1.43
2022-10-25T11:25:10.822Z,1.40
2022-10-25T11:27:45.156Z,1.50
2022-10-25T11:30:14.497Z,1.50
2022-10-25T11:32:50.525Z,1.50
2022-10-25T11:35:28.130Z,1.37
2022-10-25T11:38:02.706Z,1.30
2022-10-25T11:40:30.886Z,1.30
2022-10-25T11:43:07.496Z,1.50
2022-10-25T11:45:42.259Z,1.50
2022-10-25T11:48:23.174Z,1.63
2022-10-25T11:50:54.907Z,1.60
2022-10-25T11:53:31.780Z,1.30
2022-10-25T11:56:01.067Z,1.20
2022-10-25T11:58:37.538Z,1.20
2022-10-25T12:01:09.467Z,1.00
2022-10-25T12:03:57.918Z,1.30
2022-10-25T12:06:29.295Z,1.00
2022-10-25T12:09:00.756Z,1.20
2022-10-25T12:11:29.680Z,1.17
2022-10-25T12:13:59.429Z,1.10
2022-10-25T12:16:28.130Z,1.13
2022-10-25T12:19:01.018Z,1.20
2022-10-25T12:21:42.799Z,1.00
2022-10-25T12:24:15.840Z,1.30
2022-10-25T12:26:43.428Z,1.40
2022-10-25T12:29:15.399Z,1.10
2022-10-25T12:31:44.230Z,1.13
2022-10-25T12:34:13.936Z,1.00
2022-10-25T12:36:44.587Z,1.23
2022-10-25T12:39:13.925Z,1.20
2022-10-25T12:41:44.437Z,1.30
2022-10-25T12:44:18.398Z,1.20
2022-10-25T12:47:03.592Z,1.00
2022-10-25T12:49:45.124Z,1.10
2022-10-25T12:52:25.083Z,1.00
2022-10-25T12:55:10.929Z,1.10
2022-10-25T12:57:48.207Z,1.30
2022-10-25T13:00:16.912Z,1.10
2022-10-25T13:02:50.505Z,1.00
2022-10-25T13:05:28.696Z,1.00
2022-10-25T13:07:58.135Z,1.20
2022-10-25T13:12:59.840Z,1.00
2022-10-25T13:15:27.347Z,1.17
2022-10-25T13:18:04.861Z,1.00
2022-10-25T13:20:48.550Z,1.07
2022-10-25T13:23:34.755Z,1.00
2022-10-25T13:26:06.559Z,0.90
2022-10-25T13:28:43.692Z,1.20
2022-10-25T13:31:30.517Z,0.90
2022-10-25T13:34:12.999Z,1.10
2022-10-25T13:36:51.620Z,1.00
2022-10-25T13:39:23.255Z,1.00
2022-10-25T13:41:53.546Z,1.33
2022-10-25T13:44:21.815Z,0.90
2022-10-25T13:46:49.296Z,1.00
2022-10-25T13:49:29.246Z,0.80
2022-10-25T13:51:57.250Z,1.33
2022-10-25T13:54:24.607Z,1.37
2022-10-25T13:56:54.545Z,1.13
2022-10-25T13:59:38.682Z,1.40
2022-10-25T14:02:16.191Z,1.23
2022-10-25T14:04:43.740Z,1.20
2022-10-25T14:07:29.868Z,1.20
2022-10-25T14:09:58.469Z,1.20
2022-10-25T14:12:28.607Z,1.27
2022-10-25T14:14:58.526Z,1.10
2022-10-25T14:17:30.095Z,0.90
2022-10-25T14:19:58.701Z,1.20
2022-10-25T14:22:31.790Z,0.97
2022-10-25T14:25:01.743Z,1.30
2022-10-25T14:27:31.926Z,1.20
2022-10-25T14:32:52.460Z,1.50
2022-10-25T14:35:20.056Z,1.20
2022-10-25T14:37:47.531Z,1.70
2022-10-25T14:40:19.495Z,1.40
2022-10-25T14:42:48.897Z,1.17
2022-10-25T14:45:21.104Z,1.40
2022-10-25T14:47:48.526Z,1.37
2022-10-25T14:50:16.189Z,1.30
2022-10-25T14:52:44.748Z,1.27
2022-10-25T14:55:17.435Z,1.63
2022-10-25T14:57:45.658Z,1.50
2022-10-25T15:00:19.406Z,1.43
2022-10-25T15:02:49.025Z,1.10
2022-10-25T15:05:18.313Z,1.17
2022-10-25T15:07:46.973Z,1.40
2022-10-25T15:10:44.909Z,1.00
2022-10-25T15:13:16.909Z,1.33
2022-10-25T15:15:46.656Z,1.70
2022-10-25T15:18:21.948Z,1.27
2022-10-25T15:20:50.357Z,1.50
2022-10-25T15:23:20.612Z,1.40
2022-10-25T15:25:48.110Z,1.33
2022-10-25T15:28:16.585Z,1.50
2022-10-25T15:30:44.924Z,1.80
2022-10-25T15:33:14.559Z,1.60
2022-10-25T15:35:46.315Z,1.53
2022-10-25T15:38:13.811Z,1.43
2022-10-25T15:40:42.605Z,1.60
2022-10-25T15:43:09.996Z,1.47
2022-10-25T15:45:37.721Z,1.30
2022-10-25T15:48:05.502Z,1.70
2022-10-25T15:50:34.796Z,1.20
2022-10-25T15:53:02.931Z,1.53
2022-10-25T15:55:32.943Z,1.60
2022-10-25T15:58:00.611Z,1.47
2022-10-25T16:00:30.644Z,1.40
2022-10-25T16:02:58.220Z,1.40
2022-10-25T16:05:26.534Z,1.40
2022-10-25T16:07:55.516Z,1.83
2022-10-25T16:10:24.201Z,1.40
2022-10-25T16:12:57.028Z,1.60
2022-10-25T16:15:26.954Z,1.73
2022-10-25T16:17:54.355Z,1.60
2022-10-25T16:20:22.983Z,1.80
2022-10-25T16:22:50.654Z,1.60
2022-10-25T16:25:20.380Z,2.17
2022-10-25T16:27:47.960Z,1.70
2022-10-25T16:30:16.085Z,1.50
2022-10-25T16:32:43.719Z,1.40
2022-10-25T16:35:11.391Z,1.60
2022-10-25T16:37:38.808Z,1.87
2022-10-25T16:40:07.052Z,1.77
2022-10-25T16:42:37.017Z,1.93
2022-10-25T16:45:11.369Z,1.70
2022-10-25T16:47:38.787Z,1.60
2022-10-25T16:50:06.674Z,1.80
2022-10-25T16:52:34.025Z,1.47
2022-10-25T16:55:01.378Z,3.37
2022-10-25T16:57:28.726Z,3.00
2022-10-25T16:59:57.468Z,3.00
2022-10-25T17:02:25.766Z,3.13
2022-10-25T17:04:53.545Z,2.67
2022-10-25T17:07:21.045Z,2.47
2022-10-25T17:09:48.467Z,2.40
2022-10-25T17:12:15.860Z,2.27
2022-10-25T17:14:43.226Z,2.53
2022-10-25T17:17:12.040Z,2.13
2022-10-25T17:19:39.435Z,2.00
2022-10-25T17:22:06.960Z,2.17
2022-10-25T17:24:37.343Z,2.67
2022-10-25T17:29:37.096Z,5.00
2022-10-25T17:32:04.565Z,5.40
2022-10-25T17:34:33.318Z,9.50
2022-10-25T17:37:02.185Z,10.60
2022-10-25T17:39:29.757Z,6.53
2022-10-25T17:41:57.119Z,5.63
2022-10-25T17:44:24.512Z,4.20
2022-10-25T17:46:52.038Z,3.97
2022-10-25T17:49:19.485Z,3.93
2022-10-25T17:51:48.189Z,7.27
2022-10-25T17:54:16.644Z,7.23
2022-10-25T17:56:44.054Z,8.33
2022-10-25T17:59:11.531Z,7.97
2022-10-25T18:01:40.385Z,7.77
2022-10-25T18:04:07.877Z,7.87
2022-10-25T18:06:35.306Z,6.47
2022-10-25T18:09:04.778Z,5.80
2022-10-25T18:11:32.223Z,5.10
2022-10-25T18:14:00.577Z,4.73
2022-10-25T18:16:30.652Z,5.00
2022-10-25T18:18:58.987Z,4.30
2022-10-25T18:21:26.733Z,4.57
2022-10-25T18:23:55.538Z,5.07
2022-10-25T18:26:25.024Z,3.80
2022-10-25T18:28:52.590Z,3.77
2022-10-25T18:31:21.023Z,3.63
2022-10-25T18:33:48.830Z,3.70
2022-10-25T18:36:18.886Z,3.20
2022-10-25T18:38:46.308Z,3.23
2022-10-25T18:41:14.744Z,3.90
2022-10-25T18:43:44.558Z,4.40
2022-10-25T18:46:12.445Z,3.93
2022-10-25T18:48:39.932Z,3.20
2022-10-25T18:51:08.446Z,3.27
2022-10-25T18:53:36.393Z,2.93
2022-10-25T18:56:03.799Z,3.30
2022-10-25T18:58:31.174Z,4.20
2022-10-25T19:01:06.149Z,4.80
2022-10-25T19:03:33.627Z,4.30
2022-10-25T19:06:01.010Z,6.30
2022-10-25T19:08:28.695Z,3.70
2022-10-25T19:10:56.083Z,3.63
2022-10-25T19:13:23.546Z,3.10
2022-10-25T19:15:50.900Z,2.77
2022-10-25T19:18:19.764Z,2.77
2022-10-25T19:20:47.111Z,2.47
2022-10-25T19:23:14.507Z,2.40
2022-10-25T19:25:42.132Z,1.90
2022-10-25T19:28:09.541Z,2.43
2022-10-25T19:30:37.705Z,2.10
2022-10-25T19:33:05.595Z,2.40
2022-10-25T19:35:34.409Z,2.40
2022-10-25T19:38:01.796Z,2.07
2022-10-25T19:40:29.643Z,2.90
2022-10-25T19:42:57.087Z,2.50
2022-10-25T19:45:24.519Z,2.10
2022-10-25T19:47:55.918Z,2.23
2022-10-25T19:50:23.864Z,2.80
2022-10-25T19:52:52.644Z,2.20
2022-10-25T19:55:20.011Z,2.00
2022-10-25T19:57:47.684Z,2.10
2022-10-25T20:00:15.510Z,2.00
2022-10-25T20:02:42.918Z,2.13
2022-10-25T20:07:39.719Z,2.43
2022-10-25T20:10:08.832Z,2.60
2022-10-25T20:12:36.335Z,2.20
2022-10-25T20:15:03.847Z,2.23
2022-10-25T20:17:31.272Z,2.50
2022-10-25T20:19:58.655Z,2.30
2022-10-25T20:22:26.000Z,2.30
2022-10-25T20:24:54.427Z,2.70
2022-10-25T20:27:23.177Z,2.17
2022-10-25T20:29:50.571Z,2.20
2022-10-25T20:32:18.088Z,2.10
2022-10-25T20:34:45.499Z,1.93
2022-10-25T20:37:12.871Z,2.20
2022-10-25T20:39:40.235Z,2.60
2022-10-25T20:42:07.627Z,2.03
2022-10-25T20:44:36.404Z,2.10
2022-10-25T20:47:03.800Z,2.27
2022-10-25T20:49:31.172Z,2.60
2022-10-25T20:51:58.565Z,2.10
2022-10-25T20:54:25.992Z,2.10
2022-10-25T20:56:53.350Z,1.83
2022-10-25T20:59:20.747Z,2.20
2022-10-25T21:01:49.593Z,2.20
2022-10-25T21:04:25.818Z,2.43
2022-10-25T21:06:57.892Z,2.30
2022-10-25T21:09:25.287Z,2.30
2022-10-25T21:11:52.624Z,2.43
2022-10-25T21:14:19.990Z,2.10
2022-10-25T21:16:50.059Z,2.30
2022-10-25T21:19:17.505Z,2.10
2022-10-25T21:21:44.942Z,1.90
2022-10-25T21:24:12.403Z,2.20
2022-10-25T21:26:39.843Z,2.83
2022-10-25T21:29:07.259Z,1.90
2022-10-25T21:31:35.443Z,1.93
2022-10-25T21:34:04.661Z,2.00
2022-10-25T21:36:32.145Z,2.20
2022-10-25T21:38:59.454Z,1.80
2022-10-25T21:41:27.485Z,2.13
2022-10-25T21:43:55.328Z,1.80
2022-10-25T21:46:23.228Z,2.10
2022-10-25T21:48:50.976Z,2.50
2022-10-25T21:51:20.035Z,2.20
2022-10-25T21:53:47.522Z,1.90
2022-10-25T21:56:16.172Z,1.93
2022-10-25T21:58:44.199Z,1.83
2022-10-25T22:01:12.335Z,1.90
2022-10-25T22:03:40.053Z,2.00
2022-10-25T22:06:07.801Z,1.87
2022-10-25T22:08:36.649Z,1.90
2022-10-25T22:11:05.984Z,2.20
2022-10-25T22:13:33.416Z,1.80
2022-10-25T22:16:02.055Z,1.70
2022-10-25T22:18:29.584Z,1.97
2022-10-25T22:20:57.734Z,1.80
2022-10-25T22:23:26.528Z,2.00
2022-10-25T22:25:55.449Z,2.00
2022-10-25T22:28:22.821Z,1.90
2022-10-25T22:30:50.232Z,1.80
2022-10-25T22:33:17.620Z,2.10
2022-10-25T22:35:45.004Z,2.33
2022-10-25T22:38:12.453Z,1.87
2022-10-25T22:40:39.851Z,1.90
2022-10-25T22:43:08.550Z,2.07
2022-10-25T22:45:35.948Z,1.90
2022-10-25T22:48:03.321Z,1.70
2022-10-25T22:50:30.676Z,2.57
2022-10-25T22:52:58.041Z,1.90
2022-10-25T22:55:25.403Z,2.10
2022-10-25T22:57:54.302Z,1.90
2022-10-25T23:00:23.200Z,1.60
2022-10-25T23:02:50.858Z,2.27
2022-10-25T23:05:18.419Z,1.80
2022-10-25T23:07:45.843Z,2.10
2022-10-25T23:10:14.455Z,1.83
2022-10-25T23:12:41.873Z,1.90
2022-10-25T23:15:09.556Z,1.80
2022-10-25T23:17:38.346Z,2.10
2022-10-25T23:20:06.235Z,1.53
2022-10-25T23:22:33.612Z,1.83
2022-10-25T23:25:01.005Z,1.90
2022-10-25T23:27:29.402Z,1.80
2022-10-25T23:29:56.823Z,1.90
2022-10-25T23:32:24.219Z,1.60
2022-10-25T23:34:54.975Z,1.90
2022-10-25T23:37:24.459Z,1.90
2022-10-25T23:39:51.824Z,1.90
2022-10-25T23:42:19.272Z,1.80
2022-10-25T23:44:46.749Z,2.07
2022-10-25T23:47:14.120Z,2.10
2022-10-25T23:49:41.539Z,1.70
2022-10-25T23:52:10.263Z,1.63
2022-10-25T23:54:37.663Z,1.67
2022-10-25T23:57:05.027Z,1.80
2022-10-25T23:59:32.420Z,1.73
